createdAt,value
2017-09-01T00:01:10.207Z,0
2017-09-01T00:02:32.370Z,0
2017-09-01T00:03:53.866Z,0
2017-09-01T00:05:15.993Z,0
2017-09-01T00:06:37.823Z,0
2017-09-01T00:07:59.324Z,0
2017-09-01T00:09:21.466Z,0
2017-09-01T00:10:43.313Z,0
2017-09-01T00:12:05.593Z,0
2017-09-01T00:13:26.785Z,0
2017-09-01T00:14:48.978Z,0
2017-09-01T00:16:11.371Z,0
2017-09-01T00:17:32.882Z,0
2017-09-01T00:18:55.024Z,0
2017-09-01T00:20:17.493Z,0
2017-09-01T00:21:39.892Z,0
2017-09-01T00:23:02.354Z,0
2017-09-01T00:24:23.861Z,0
2017-09-01T00:25:46.072Z,0
2017-09-01T00:27:08.192Z,0
2017-09-01T00:28:30.362Z,0
2017-09-01T00:29:52.179Z,0
2017-09-01T00:31:14.022Z,0
2017-09-01T00:32:36.623Z,0
2017-09-01T00:33:59.075Z,0
2017-09-01T00:35:21.222Z,0
2017-09-01T00:36:43.111Z,0
2017-09-01T00:38:05.546Z,0
2017-09-01T00:39:27.373Z,0
2017-09-01T00:40:49.183Z,0
2017-09-01T00:42:11.412Z,0
2017-09-01T00:43:33.873Z,0
2017-09-01T00:44:56.035Z,0
2017-09-01T00:46:17.952Z,0
2017-09-01T00:47:40.422Z,0
2017-09-01T00:49:02.549Z,0
2017-09-01T00:50:25.005Z,0
2017-09-01T00:51:47.169Z,0
2017-09-01T00:53:08.691Z,0
2017-09-01T00:54:31.474Z,0
2017-09-01T00:55:53.622Z,0
2017-09-01T00:57:16.097Z,0
2017-09-01T00:58:37.917Z,0
2017-09-01T01:00:00.618Z,0
2017-09-01T01:01:22.452Z,0
2017-09-01T01:02:44.932Z,0
2017-09-01T01:04:06.437Z,0
2017-09-01T01:05:28.514Z,0
2017-09-01T01:06:50.374Z,0
2017-09-01T01:08:11.887Z,0
2017-09-01T01:09:33.060Z,0
2017-09-01T01:10:55.141Z,0
2017-09-01T01:12:16.709Z,0
2017-09-01T01:13:38.225Z,0
2017-09-01T01:15:00.194Z,0
2017-09-01T01:16:22.312Z,0
2017-09-01T01:17:44.151Z,0
2017-09-01T01:19:05.334Z,0
2017-09-01T01:20:27.608Z,0
2017-09-01T01:21:49.495Z,0
2017-09-01T01:23:11.960Z,0
2017-09-01T01:24:33.794Z,0
2017-09-01T01:25:55.621Z,0
2017-09-01T01:27:18.458Z,0
2017-09-01T01:28:39.980Z,0
2017-09-01T01:30:01.492Z,0
2017-09-01T01:31:23.333Z,0
2017-09-01T01:32:46.252Z,0
2017-09-01T01:34:08.397Z,0
2017-09-01T01:35:30.232Z,0
2017-09-01T01:36:52.362Z,0
2017-09-01T01:38:14.482Z,0
2017-09-01T01:39:35.993Z,0
2017-09-01T01:40:57.973Z,0
2017-09-01T01:42:19.464Z,0
2017-09-01T01:43:41.882Z,0
2017-09-01T01:45:03.093Z,0
2017-09-01T01:46:24.596Z,0
2017-09-01T01:47:47.063Z,0
2017-09-01T01:49:09.664Z,0
2017-09-01T01:50:32.233Z,0
2017-09-01T01:51:53.823Z,0
2017-09-01T01:53:16.293Z,0
2017-09-01T01:54:37.512Z,0
2017-09-01T01:55:59.494Z,0
2017-09-01T01:57:20.695Z,0
2017-09-01T01:58:43.212Z,0
2017-09-01T02:00:05.724Z,0
2017-09-01T02:01:28.191Z,0
2017-09-01T02:02:49.502Z,0
2017-09-01T02:04:11.320Z,0
2017-09-01T02:05:34.034Z,0
2017-09-01T02:06:56.593Z,0
2017-09-01T02:08:18.799Z,0
2017-09-01T02:09:40.988Z,0
2017-09-01T02:11:03.055Z,0
2017-09-01T02:12:25.289Z,0
2017-09-01T02:13:47.423Z,0
2017-09-01T02:15:08.586Z,0
2017-09-01T02:16:31.353Z,0
2017-09-01T02:17:52.856Z,0
2017-09-01T02:19:15.482Z,0
2017-09-01T02:20:37.308Z,0
2017-09-01T02:21:59.712Z,0
2017-09-01T02:23:21.216Z,0
2017-09-01T02:24:43.361Z,0
2017-09-01T02:26:05.515Z,0
2017-09-01T02:27:28.443Z,0
2017-09-01T02:28:50.275Z,0
2017-09-01T02:30:11.792Z,0
2017-09-01T02:31:33.293Z,0
2017-09-01T02:32:56.005Z,0
2017-09-01T02:34:17.626Z,0
2017-09-01T02:35:39.454Z,0
2017-09-01T02:37:01.589Z,0
2017-09-01T02:38:24.043Z,0
2017-09-01T02:39:45.313Z,0
2017-09-01T02:41:07.503Z,0
2017-09-01T02:42:29.314Z,0
2017-09-01T02:43:51.555Z,0
2017-09-01T02:45:14.045Z,0
2017-09-01T02:46:36.005Z,0
2017-09-01T02:47:57.924Z,0
2017-09-01T02:49:20.414Z,0
2017-09-01T02:50:42.878Z,0
2017-09-01T02:52:04.435Z,0
2017-09-01T02:53:26.257Z,0
2017-09-01T02:54:48.010Z,0
2017-09-01T02:56:10.189Z,0
2017-09-01T02:57:32.416Z,0
2017-09-01T02:58:54.442Z,0
2017-09-01T03:00:16.455Z,0
2017-09-01T03:01:38.943Z,0
2017-09-01T03:03:00.889Z,0
2017-09-01T03:04:23.488Z,0
2017-09-01T03:05:45.543Z,0
2017-09-01T03:07:07.387Z,0
2017-09-01T03:08:29.537Z,0
2017-09-01T03:09:51.075Z,0
2017-09-01T03:11:13.854Z,0
2017-09-01T03:12:35.746Z,0
2017-09-01T03:13:57.932Z,0
2017-09-01T03:15:19.752Z,0
2017-09-01T03:16:42.187Z,0
2017-09-01T03:18:04.053Z,0
2017-09-01T03:19:25.898Z,0
2017-09-01T03:20:47.829Z,0
2017-09-01T03:22:09.642Z,0
2017-09-01T03:23:31.494Z,0
2017-09-01T03:24:53.758Z,0
2017-09-01T03:26:15.363Z,0
2017-09-01T03:27:37.759Z,0
2017-09-01T03:28:59.273Z,0
2017-09-01T03:30:20.801Z,0
2017-09-01T03:31:42.617Z,0
2017-09-01T03:33:04.894Z,0
2017-09-01T03:34:27.050Z,0
2017-09-01T03:35:49.194Z,0
2017-09-01T03:37:11.801Z,0
2017-09-01T03:38:33.684Z,0
2017-09-01T03:39:55.520Z,0
2017-09-01T03:41:17.441Z,0
2017-09-01T03:42:38.963Z,0
2017-09-01T03:44:01.390Z,0
2017-09-01T03:45:23.221Z,0
2017-09-01T03:46:45.362Z,0
2017-09-01T03:48:07.563Z,0
2017-09-01T03:49:30.109Z,0
2017-09-01T03:50:51.290Z,0
2017-09-01T03:52:13.438Z,0
2017-09-01T03:53:35.275Z,0
2017-09-01T03:54:57.409Z,0
2017-09-01T03:56:19.255Z,0
2017-09-01T03:57:41.092Z,4
2017-09-01T03:59:02.934Z,4
2017-09-01T04:00:25.065Z,4
2017-09-01T04:01:46.923Z,0
2017-09-01T04:03:09.413Z,4
2017-09-01T04:04:31.294Z,4
2017-09-01T04:05:53.794Z,8
2017-09-01T04:07:15.303Z,4
2017-09-01T04:08:37.135Z,8
2017-09-01T04:09:58.968Z,8
2017-09-01T04:11:21.117Z,12
2017-09-01T04:12:43.366Z,12
2017-09-01T04:14:05.515Z,16
2017-09-01T04:15:27.032Z,20
2017-09-01T04:16:49.553Z,24
2017-09-01T04:18:11.378Z,28
2017-09-01T04:19:32.872Z,32
2017-09-01T04:20:54.376Z,40
2017-09-01T04:22:16.834Z,48
2017-09-01T04:23:38.985Z,56
2017-09-01T04:25:00.783Z,68
2017-09-01T04:26:22.671Z,80
2017-09-01T04:27:45.319Z,96
2017-09-01T04:29:07.142Z,112
2017-09-01T04:30:28.651Z,128
2017-09-01T04:31:50.485Z,152
2017-09-01T04:33:13.004Z,184
2017-09-01T04:34:34.835Z,220
2017-09-01T04:35:57.454Z,268
2017-09-01T04:37:19.594Z,324
2017-09-01T04:38:42.830Z,392
2017-09-01T04:40:04.628Z,456
2017-09-01T04:41:26.903Z,520
2017-09-01T04:42:48.393Z,584
2017-09-01T04:44:10.886Z,652
2017-09-01T04:45:33.049Z,716
2017-09-01T04:46:54.859Z,784
2017-09-01T04:48:17.013Z,860
2017-09-01T04:49:39.183Z,940
2017-09-01T04:51:01.009Z,1020
2017-09-01T04:52:22.534Z,1108
2017-09-01T04:53:43.817Z,1204
2017-09-01T04:55:06.224Z,1300
2017-09-01T04:56:28.407Z,1400
2017-09-01T04:57:50.241Z,1504
2017-09-01T04:59:12.415Z,1604
2017-09-01T05:00:35.182Z,1704
2017-09-01T05:01:57.326Z,1796
2017-09-01T05:03:19.192Z,1904
2017-09-01T05:04:41.366Z,2008
2017-09-01T05:06:03.450Z,2128
2017-09-01T05:07:25.603Z,2228
2017-09-01T05:08:47.104Z,2296
2017-09-01T05:10:08.985Z,2416
2017-09-01T05:11:31.443Z,2560
2017-09-01T05:12:53.322Z,2676
2017-09-01T05:14:15.176Z,2804
2017-09-01T05:15:37.313Z,2984
2017-09-01T05:16:59.496Z,3188
2017-09-01T05:18:21.353Z,3364
2017-09-01T05:19:42.883Z,3512
2017-09-01T05:21:05.015Z,3616
2017-09-01T05:22:27.084Z,3688
2017-09-01T05:23:49.557Z,3776
2017-09-01T05:25:11.476Z,3876
2017-09-01T05:26:32.656Z,3980
2017-09-01T05:28:09.708Z,4100
2017-09-01T05:29:31.854Z,4208
2017-09-01T05:30:53.361Z,4324
2017-09-01T05:32:15.625Z,4468
2017-09-01T05:33:37.793Z,4612
2017-09-01T05:34:59.614Z,4768
2017-09-01T05:36:21.094Z,5004
2017-09-01T05:37:43.611Z,5296
2017-09-01T05:39:06.344Z,5668
2017-09-01T05:40:28.193Z,6172
2017-09-01T05:41:49.908Z,9416
2017-09-01T05:43:12.086Z,14656
2017-09-01T05:44:34.263Z,15680
2017-09-01T05:45:55.755Z,16000
2017-09-01T05:47:17.583Z,16576
2017-09-01T05:48:40.057Z,17152
2017-09-01T05:50:02.869Z,17312
2017-09-01T05:51:24.717Z,17408
2017-09-01T05:52:46.528Z,17152
2017-09-01T05:54:08.037Z,17760
2017-09-01T05:55:30.100Z,18176
2017-09-01T05:56:51.921Z,18528
2017-09-01T05:58:14.534Z,19072
2017-09-01T05:59:36.338Z,19200
2017-09-01T06:00:58.901Z,19872
2017-09-01T06:02:21.067Z,20384
2017-09-01T06:03:43.530Z,21248
2017-09-01T06:05:05.682Z,21472
2017-09-01T06:06:28.138Z,21120
2017-09-01T06:07:50.635Z,21408
2017-09-01T06:09:12.781Z,22016
2017-09-01T06:10:34.354Z,22880
2017-09-01T06:11:56.823Z,23296
2017-09-01T06:13:18.655Z,23808
2017-09-01T06:14:40.244Z,23904
2017-09-01T06:16:02.416Z,24672
2017-09-01T06:17:24.817Z,25344
2017-09-01T06:18:46.996Z,25056
2017-09-01T06:20:08.512Z,26336
2017-09-01T06:21:30.683Z,26432
2017-09-01T06:22:52.863Z,26432
2017-09-01T06:24:15.020Z,28384
2017-09-01T06:25:37.253Z,28608
2017-09-01T06:26:58.449Z,28832
2017-09-01T06:28:20.593Z,28768
2017-09-01T06:29:42.124Z,29888
2017-09-01T06:31:04.589Z,30528
2017-09-01T06:32:26.113Z,31040
2017-09-01T06:33:48.539Z,31104
2017-09-01T06:35:10.690Z,31296
2017-09-01T06:36:32.851Z,31200
2017-09-01T06:37:54.367Z,31680
2017-09-01T06:39:17.164Z,33184
2017-09-01T06:40:38.686Z,33312
2017-09-01T06:42:00.934Z,34336
2017-09-01T06:43:23.103Z,34944
2017-09-01T06:44:45.243Z,35936
2017-09-01T06:46:06.797Z,35648
2017-09-01T06:47:28.644Z,35488
2017-09-01T06:48:50.484Z,36288
2017-09-01T06:50:12.572Z,36480
2017-09-01T06:51:33.776Z,34592
2017-09-01T06:52:55.934Z,27136
2017-09-01T06:54:17.800Z,19744
2017-09-01T06:55:40.265Z,17856
2017-09-01T06:57:02.191Z,17472
2017-09-01T06:58:23.708Z,17280
2017-09-01T06:59:45.242Z,17088
2017-09-01T07:01:07.175Z,16864
2017-09-01T07:02:29.307Z,16672
2017-09-01T07:03:51.994Z,16480
2017-09-01T07:05:14.153Z,16256
2017-09-01T07:06:35.970Z,15908
2017-09-01T07:07:58.545Z,15768
2017-09-01T07:09:20.700Z,15644
2017-09-01T07:10:42.622Z,15544
2017-09-01T07:12:05.435Z,15412
2017-09-01T07:13:27.912Z,15260
2017-09-01T07:14:49.751Z,15152
2017-09-01T07:16:10.971Z,14992
2017-09-01T07:17:35.301Z,14860
2017-09-01T07:18:57.463Z,14744
2017-09-01T07:20:19.296Z,14592
2017-09-01T07:21:41.463Z,14448
2017-09-01T07:23:03.228Z,14396
2017-09-01T07:24:25.705Z,14344
2017-09-01T07:25:47.542Z,14244
2017-09-01T07:27:09.414Z,14104
2017-09-01T07:28:31.561Z,13900
2017-09-01T07:29:53.513Z,13660
2017-09-01T07:31:15.983Z,13544
2017-09-01T07:32:38.180Z,13408
2017-09-01T07:34:00.973Z,13212
2017-09-01T07:35:22.826Z,12940
2017-09-01T07:36:44.972Z,12660
2017-09-01T07:38:06.243Z,12320
2017-09-01T07:39:28.510Z,12040
2017-09-01T07:40:50.343Z,11820
2017-09-01T07:42:12.653Z,11536
2017-09-01T07:43:34.483Z,11248
2017-09-01T07:44:56.736Z,10720
2017-09-01T07:46:17.943Z,9740
2017-09-01T07:47:39.794Z,8832
2017-09-01T07:49:01.943Z,8144
2017-09-01T07:50:23.811Z,7776
2017-09-01T07:51:45.655Z,7612
2017-09-01T07:53:08.136Z,7520
2017-09-01T07:54:30.626Z,7476
2017-09-01T07:55:53.131Z,7400
2017-09-01T07:57:15.293Z,7284
2017-09-01T07:58:37.493Z,7260
2017-09-01T07:59:59.004Z,7256
2017-09-01T08:01:21.845Z,7264
2017-09-01T08:02:43.792Z,7280
2017-09-01T08:04:06.284Z,7020
2017-09-01T08:05:28.472Z,7268
2017-09-01T08:06:51.314Z,7272
2017-09-01T08:08:13.150Z,7300
2017-09-01T08:09:34.675Z,7256
2017-09-01T08:10:56.834Z,7312
2017-09-01T08:12:18.833Z,7308
2017-09-01T08:13:41.053Z,7280
2017-09-01T08:15:02.880Z,7276
2017-09-01T08:16:25.151Z,7244
2017-09-01T08:17:47.675Z,7164
2017-09-01T08:19:09.810Z,7124
2017-09-01T08:20:31.370Z,7120
2017-09-01T08:21:53.244Z,7164
2017-09-01T08:23:15.759Z,7192
2017-09-01T08:24:37.925Z,7140
2017-09-01T08:26:00.124Z,7152
2017-09-01T08:27:22.624Z,7184
2017-09-01T08:28:45.136Z,7200
2017-09-01T08:30:07.436Z,7192
2017-09-01T08:31:30.034Z,7212
2017-09-01T08:32:52.194Z,7296
2017-09-01T08:34:14.043Z,7264
2017-09-01T08:35:36.206Z,7216
2017-09-01T08:36:58.394Z,7184
2017-09-01T08:38:20.886Z,7160
2017-09-01T08:39:43.333Z,7112
2017-09-01T08:41:05.185Z,7088
2017-09-01T08:42:27.037Z,7056
2017-09-01T08:43:49.524Z,7012
2017-09-01T08:45:12.312Z,7016
2017-09-01T08:46:34.454Z,7048
2017-09-01T08:47:56.625Z,7080
2017-09-01T08:49:18.851Z,7100
2017-09-01T08:50:41.164Z,7080
2017-09-01T08:52:03.351Z,7188
2017-09-01T08:53:25.838Z,7288
2017-09-01T08:54:47.685Z,7308
2017-09-01T08:56:10.123Z,7344
2017-09-01T08:57:31.963Z,7328
2017-09-01T08:58:54.124Z,7316
2017-09-01T09:00:15.656Z,7428
2017-09-01T09:01:38.154Z,7220
2017-09-01T09:03:00.655Z,6504
2017-09-01T09:04:23.122Z,7084
2017-09-01T09:05:45.281Z,7768
2017-09-01T09:07:07.467Z,8000
2017-09-01T09:08:29.604Z,7976
2017-09-01T09:09:52.147Z,7620
2017-09-01T09:11:13.975Z,8184
2017-09-01T09:12:35.865Z,8472
2017-09-01T09:13:57.688Z,8388
2017-09-01T09:15:20.000Z,8912
2017-09-01T09:16:41.526Z,8956
2017-09-01T09:18:04.121Z,9496
2017-09-01T09:19:26.346Z,9172
2017-09-01T09:20:48.185Z,8824
2017-09-01T09:22:10.324Z,9144
2017-09-01T09:23:32.655Z,9408
2017-09-01T09:24:54.804Z,9676
2017-09-01T09:26:16.623Z,10484
2017-09-01T09:27:38.765Z,11440
2017-09-01T09:29:00.574Z,11404
2017-09-01T09:30:22.084Z,10880
2017-09-01T09:31:44.075Z,10472
2017-09-01T09:33:06.014Z,10424
2017-09-01T09:34:28.186Z,11004
2017-09-01T09:35:50.024Z,11524
2017-09-01T09:37:11.878Z,12512
2017-09-01T09:38:34.026Z,13156
2017-09-01T09:39:56.535Z,12796
2017-09-01T09:41:18.685Z,12860
2017-09-01T09:42:40.215Z,13072
2017-09-01T09:44:02.115Z,13176
2017-09-01T09:45:24.944Z,13612
2017-09-01T09:46:46.834Z,13952
2017-09-01T09:48:08.661Z,13604
2017-09-01T09:49:30.504Z,13064
2017-09-01T09:50:52.425Z,13432
2017-09-01T09:52:14.615Z,13876
2017-09-01T09:53:37.132Z,14080
2017-09-01T09:54:59.457Z,14028
2017-09-01T09:56:21.654Z,14396
2017-09-01T09:57:43.166Z,14320
2017-09-01T09:59:05.383Z,14516
2017-09-01T10:00:27.954Z,14212
2017-09-01T10:01:50.003Z,14012
2017-09-01T10:03:12.624Z,14424
2017-09-01T10:04:34.794Z,14316
2017-09-01T10:05:56.716Z,14068
2017-09-01T10:07:19.615Z,13116
2017-09-01T10:08:41.447Z,13084
2017-09-01T10:10:03.962Z,14156
2017-09-01T10:11:26.445Z,15408
2017-09-01T10:13:03.564Z,15816
2017-09-01T10:14:25.644Z,15420
2017-09-01T10:15:47.824Z,15408
2017-09-01T10:17:10.325Z,16292
2017-09-01T10:18:32.742Z,15932
2017-09-01T10:19:54.944Z,15252
2017-09-01T10:21:16.130Z,14796
2017-09-01T10:22:37.969Z,14028
2017-09-01T10:24:00.364Z,12976
2017-09-01T10:25:22.850Z,12220
2017-09-01T10:26:44.764Z,12332
2017-09-01T10:28:06.300Z,12288
2017-09-01T10:29:28.427Z,13152
2017-09-01T10:30:50.608Z,12516
2017-09-01T10:32:13.105Z,12684
2017-09-01T10:33:35.584Z,13460
2017-09-01T10:34:58.087Z,15168
2017-09-01T10:36:19.916Z,14976
2017-09-01T10:37:41.793Z,13776
2017-09-01T10:39:03.636Z,13180
2017-09-01T10:40:25.766Z,12128
2017-09-01T10:41:47.657Z,11540
2017-09-01T10:43:09.918Z,11944
2017-09-01T10:44:31.444Z,12904
2017-09-01T10:45:53.922Z,13896
2017-09-01T10:47:16.534Z,14912
2017-09-01T10:48:38.873Z,15108
2017-09-01T10:50:01.365Z,14392
2017-09-01T10:51:23.893Z,13516
2017-09-01T10:52:46.415Z,13636
2017-09-01T10:54:08.277Z,13432
2017-09-01T10:55:30.803Z,13484
2017-09-01T10:56:53.219Z,14528
2017-09-01T10:58:15.372Z,15612
2017-09-01T10:59:37.215Z,16992
2017-09-01T11:00:58.739Z,17472
2017-09-01T11:02:21.148Z,16832
2017-09-01T11:03:43.299Z,15792
2017-09-01T11:05:05.153Z,15176
2017-09-01T11:06:27.663Z,15120
2017-09-01T11:07:49.510Z,15524
2017-09-01T11:09:11.713Z,16928
2017-09-01T11:10:33.883Z,17088
2017-09-01T11:11:56.353Z,16504
2017-09-01T11:13:18.882Z,14872
2017-09-01T11:14:41.065Z,14596
2017-09-01T11:16:03.235Z,15516
2017-09-01T11:17:25.413Z,15812
2017-09-01T11:18:48.254Z,15204
2017-09-01T11:20:10.079Z,14832
2017-09-01T11:21:32.251Z,14296
2017-09-01T11:22:54.723Z,14128
2017-09-01T11:24:17.572Z,13892
2017-09-01T11:25:39.814Z,13548
2017-09-01T11:27:02.003Z,12692
2017-09-01T11:28:24.167Z,11908
2017-09-01T11:29:46.693Z,11504
2017-09-01T11:31:08.847Z,11568
2017-09-01T11:32:31.049Z,12556
2017-09-01T11:33:52.561Z,13160
2017-09-01T11:35:14.660Z,13708
2017-09-01T11:36:36.953Z,13548
2017-09-01T11:37:59.120Z,13032
2017-09-01T11:39:20.735Z,14024
2017-09-01T11:40:43.650Z,14652
2017-09-01T11:42:05.182Z,14392
2017-09-01T11:43:27.672Z,13412
2017-09-01T11:44:49.953Z,13236
2017-09-01T11:46:12.483Z,12848
2017-09-01T11:47:35.063Z,12840
2017-09-01T11:48:57.212Z,12252
2017-09-01T11:50:19.394Z,12284
2017-09-01T11:51:41.902Z,11740
2017-09-01T11:53:04.097Z,12104
2017-09-01T11:54:26.262Z,12420
2017-09-01T11:55:48.573Z,12624
2017-09-01T11:57:10.547Z,12532
2017-09-01T11:58:32.763Z,13140
2017-09-01T11:59:55.022Z,14104
2017-09-01T12:01:16.853Z,15348
2017-09-01T12:02:39.370Z,16544
2017-09-01T12:04:01.564Z,17824
2017-09-01T12:05:23.384Z,17856
2017-09-01T12:06:45.573Z,17952
2017-09-01T12:08:07.743Z,17664
2017-09-01T12:09:29.607Z,17536
2017-09-01T12:10:51.468Z,17088
2017-09-01T12:12:13.743Z,16480
2017-09-01T12:13:36.555Z,15324
2017-09-01T12:14:59.053Z,15140
2017-09-01T12:16:21.208Z,14680
2017-09-01T12:17:43.062Z,15056
2017-09-01T12:19:05.154Z,14872
2017-09-01T12:20:27.316Z,14540
2017-09-01T12:21:49.614Z,14312
2017-09-01T12:23:12.104Z,14172
2017-09-01T12:24:34.835Z,14268
2017-09-01T12:25:57.189Z,14800
2017-09-01T12:27:19.683Z,15360
2017-09-01T12:28:41.852Z,15004
2017-09-01T12:30:04.063Z,16040
2017-09-01T12:31:26.221Z,17280
2017-09-01T12:32:48.459Z,16896
2017-09-01T12:34:10.515Z,15912
2017-09-01T12:35:32.740Z,15024
2017-09-01T12:36:54.891Z,13912
2017-09-01T12:38:17.395Z,13228
2017-09-01T12:39:39.903Z,12460
2017-09-01T12:41:02.331Z,13728
2017-09-01T12:42:25.014Z,14828
2017-09-01T12:43:47.512Z,15584
2017-09-01T12:45:09.688Z,15144
2017-09-01T12:46:32.364Z,14192
2017-09-01T12:47:54.878Z,13328
2017-09-01T12:49:17.055Z,13052
2017-09-01T12:50:39.553Z,13176
2017-09-01T12:52:01.973Z,13732
2017-09-01T12:53:23.615Z,14564
2017-09-01T12:54:45.504Z,15020
2017-09-01T12:56:07.695Z,14620
2017-09-01T12:57:30.695Z,14116
2017-09-01T12:58:52.569Z,12684
2017-09-01T13:00:14.098Z,12432
2017-09-01T13:01:36.725Z,12352
2017-09-01T13:02:59.534Z,11600
2017-09-01T13:04:21.724Z,10704
2017-09-01T13:05:44.248Z,10364
2017-09-01T13:07:06.434Z,10256
2017-09-01T13:08:28.929Z,10972
2017-09-01T13:09:51.104Z,12072
2017-09-01T13:11:13.288Z,12764
2017-09-01T13:12:35.623Z,13568
2017-09-01T13:13:58.464Z,14368
2017-09-01T13:15:20.793Z,14560
2017-09-01T13:16:43.003Z,14048
2017-09-01T13:18:04.538Z,13280
2017-09-01T13:19:27.073Z,12136
2017-09-01T13:20:49.683Z,11408
2017-09-01T13:22:12.261Z,10712
2017-09-01T13:23:34.444Z,10288
2017-09-01T13:24:57.301Z,9796
2017-09-01T13:26:19.169Z,9100
2017-09-01T13:27:41.673Z,8780
2017-09-01T13:29:04.173Z,8796
2017-09-01T13:30:27.024Z,9280
2017-09-01T13:31:49.523Z,10088
2017-09-01T13:33:12.036Z,10788
2017-09-01T13:34:34.579Z,11988
2017-09-01T13:35:57.554Z,13300
2017-09-01T13:37:19.387Z,13556
2017-09-01T13:38:41.893Z,13332
2017-09-01T13:40:04.063Z,13116
2017-09-01T13:41:26.934Z,12692
2017-09-01T13:42:49.122Z,12052
2017-09-01T13:44:10.984Z,11756
2017-09-01T13:45:33.160Z,11340
2017-09-01T13:46:55.503Z,10512
2017-09-01T13:48:17.682Z,9832
2017-09-01T13:49:39.924Z,9756
2017-09-01T13:51:02.099Z,9868
2017-09-01T13:52:24.664Z,9348
2017-09-01T13:53:47.152Z,8556
2017-09-01T13:55:09.043Z,8152
2017-09-01T13:56:31.726Z,8144
2017-09-01T13:57:54.368Z,8436
2017-09-01T13:59:16.533Z,8960
2017-09-01T14:00:39.064Z,9528
2017-09-01T14:02:01.554Z,9536
2017-09-01T14:03:23.945Z,9052
2017-09-01T14:04:46.494Z,8760
2017-09-01T14:06:08.352Z,8396
2017-09-01T14:07:30.846Z,8532
2017-09-01T14:08:53.316Z,8900
2017-09-01T14:10:15.945Z,9240
2017-09-01T14:11:38.435Z,9464
2017-09-01T14:13:00.863Z,9828
2017-09-01T14:14:23.419Z,10424
2017-09-01T14:15:45.263Z,11156
2017-09-01T14:17:07.744Z,11732
2017-09-01T14:18:30.256Z,11672
2017-09-01T14:19:53.061Z,11624
2017-09-01T14:21:14.909Z,11668
2017-09-01T14:22:37.103Z,11836
2017-09-01T14:23:58.984Z,12320
2017-09-01T14:25:21.859Z,12236
2017-09-01T14:26:44.008Z,11820
2017-09-01T14:28:06.603Z,10936
2017-09-01T14:29:29.074Z,10592
2017-09-01T14:30:51.605Z,10768
2017-09-01T14:32:14.146Z,10688
2017-09-01T14:33:36.412Z,10732
2017-09-01T14:34:58.289Z,10956
2017-09-01T14:36:20.155Z,11340
2017-09-01T14:37:42.681Z,11900
2017-09-01T14:39:05.170Z,12484
2017-09-01T14:40:27.344Z,12344
2017-09-01T14:41:49.923Z,12912
2017-09-01T14:43:12.126Z,12700
2017-09-01T14:44:34.393Z,12448
2017-09-01T14:45:56.565Z,12132
2017-09-01T14:47:19.347Z,12584
2017-09-01T14:48:41.543Z,13120
2017-09-01T14:50:03.373Z,13548
2017-09-01T14:51:25.589Z,12756
2017-09-01T14:52:47.855Z,11128
2017-09-01T14:54:10.362Z,10300
2017-09-01T14:55:31.884Z,9816
2017-09-01T14:56:54.377Z,9888
2017-09-01T14:58:17.214Z,10420
2017-09-01T14:59:39.082Z,10308
2017-09-01T15:01:00.968Z,10276
2017-09-01T15:02:23.440Z,9868
2017-09-01T15:03:45.642Z,9424
2017-09-01T15:05:07.863Z,8952
2017-09-01T15:06:30.353Z,8772
2017-09-01T15:07:52.254Z,8744
2017-09-01T15:09:14.677Z,8540
2017-09-01T15:10:37.256Z,8260
2017-09-01T15:11:59.731Z,7924
2017-09-01T15:13:21.916Z,7428
2017-09-01T15:14:44.393Z,7324
2017-09-01T15:16:07.023Z,7400
2017-09-01T15:17:29.189Z,7320
2017-09-01T15:18:51.702Z,7320
2017-09-01T15:20:14.126Z,7072
2017-09-01T15:21:35.988Z,7264
2017-09-01T15:22:58.480Z,7480
2017-09-01T15:24:20.472Z,7472
2017-09-01T15:25:42.993Z,7252
2017-09-01T15:27:05.147Z,7396
2017-09-01T15:28:27.396Z,7296
2017-09-01T15:29:49.763Z,7312
2017-09-01T15:31:12.063Z,7236
2017-09-01T15:32:34.243Z,7408
2017-09-01T15:33:56.583Z,7348
2017-09-01T15:35:19.075Z,7360
2017-09-01T15:36:41.525Z,7068
2017-09-01T15:38:04.040Z,6956
2017-09-01T15:39:26.212Z,6916
2017-09-01T15:40:48.147Z,6808
2017-09-01T15:42:10.446Z,6680
2017-09-01T15:43:32.243Z,6500
2017-09-01T15:44:54.287Z,6440
2017-09-01T15:46:16.541Z,6708
2017-09-01T15:47:39.084Z,7124
2017-09-01T15:49:01.471Z,7316
2017-09-01T15:50:23.644Z,7256
2017-09-01T15:51:46.294Z,7232
2017-09-01T15:53:08.848Z,7680
2017-09-01T15:54:30.695Z,8172
2017-09-01T15:55:52.875Z,8344
2017-09-01T15:57:15.053Z,8452
2017-09-01T15:58:37.615Z,8492
2017-09-01T15:59:59.780Z,8520
2017-09-01T16:01:22.083Z,8660
2017-09-01T16:02:44.578Z,9488
2017-09-01T16:04:06.764Z,10668
2017-09-01T16:05:28.965Z,11088
2017-09-01T16:06:51.323Z,11012
2017-09-01T16:08:13.163Z,10444
2017-09-01T16:09:35.582Z,10308
2017-09-01T16:10:57.750Z,10128
2017-09-01T16:12:19.732Z,9360
2017-09-01T16:13:41.883Z,8500
2017-09-01T16:15:03.698Z,7744
2017-09-01T16:16:25.875Z,7044
2017-09-01T16:17:48.383Z,6072
2017-09-01T16:19:10.614Z,5388
2017-09-01T16:20:33.127Z,4960
2017-09-01T16:21:55.624Z,4748
2017-09-01T16:23:18.069Z,4508
2017-09-01T16:24:40.422Z,4320
2017-09-01T16:26:02.927Z,4224
2017-09-01T16:27:25.420Z,4148
2017-09-01T16:28:46.956Z,4088
2017-09-01T16:30:08.825Z,4100
2017-09-01T16:31:31.364Z,4076
2017-09-01T16:32:53.895Z,4012
2017-09-01T16:34:16.068Z,3940
2017-09-01T16:35:37.949Z,3888
2017-09-01T16:37:00.816Z,3848
2017-09-01T16:38:22.671Z,3824
2017-09-01T16:39:44.853Z,3800
2017-09-01T16:41:07.134Z,3756
2017-09-01T16:42:29.641Z,3696
2017-09-01T16:43:52.245Z,3632
2017-09-01T16:45:14.786Z,3576
2017-09-01T16:46:36.931Z,3536
2017-09-01T16:47:59.505Z,3496
2017-09-01T16:49:21.383Z,3476
2017-09-01T16:50:43.563Z,3424
2017-09-01T16:52:05.722Z,3388
2017-09-01T16:53:28.323Z,3360
2017-09-01T16:54:50.853Z,3316
2017-09-01T16:56:13.062Z,3280
2017-09-01T16:57:35.552Z,3256
2017-09-01T16:58:57.775Z,3216
2017-09-01T17:00:20.015Z,3164
2017-09-01T17:01:42.245Z,3148
2017-09-01T17:03:04.825Z,3160
2017-09-01T17:04:27.333Z,3172
2017-09-01T17:05:48.582Z,3188
2017-09-01T17:07:11.082Z,3188
2017-09-01T17:08:32.920Z,3184
2017-09-01T17:09:55.346Z,3196
2017-09-01T17:11:17.843Z,3184
2017-09-01T17:12:40.343Z,3108
2017-09-01T17:14:02.844Z,2948
2017-09-01T17:15:25.412Z,2772
2017-09-01T17:16:47.652Z,2628
2017-09-01T17:18:09.624Z,2528
2017-09-01T17:19:32.108Z,2428
2017-09-01T17:20:54.806Z,2312
2017-09-01T17:22:17.075Z,2200
2017-09-01T17:23:39.673Z,2096
2017-09-01T17:25:01.502Z,1984
2017-09-01T17:26:23.639Z,1880
2017-09-01T17:27:45.861Z,1792
2017-09-01T17:29:08.168Z,1724
2017-09-01T17:30:30.334Z,1656
2017-09-01T17:31:52.776Z,1588
2017-09-01T17:33:15.372Z,1532
2017-09-01T17:34:37.546Z,1480
2017-09-01T17:35:59.716Z,1428
2017-09-01T17:37:21.858Z,1380
2017-09-01T17:38:44.375Z,1336
2017-09-01T17:40:06.564Z,1304
2017-09-01T17:41:29.195Z,1256
2017-09-01T17:42:52.042Z,1192
2017-09-01T17:44:14.223Z,1120
2017-09-01T17:45:36.422Z,1044
2017-09-01T17:46:58.925Z,980
2017-09-01T17:48:21.414Z,928
2017-09-01T17:49:43.664Z,884
2017-09-01T17:51:05.622Z,844
2017-09-01T17:52:28.113Z,804
2017-09-01T17:53:50.999Z,760
2017-09-01T17:55:13.176Z,712
2017-09-01T17:56:35.684Z,660
2017-09-01T17:57:57.557Z,620
2017-09-01T17:59:20.413Z,580
2017-09-01T18:00:42.612Z,544
2017-09-01T18:02:04.579Z,504
2017-09-01T18:03:27.081Z,468
2017-09-01T18:04:49.282Z,432
2017-09-01T18:06:11.634Z,392
2017-09-01T18:07:34.121Z,352
2017-09-01T18:08:56.653Z,316
2017-09-01T18:10:18.752Z,288
2017-09-01T18:11:41.282Z,260
2017-09-01T18:13:02.810Z,240
2017-09-01T18:14:25.320Z,216
2017-09-01T18:15:48.144Z,196
2017-09-01T18:17:10.725Z,180
2017-09-01T18:18:33.004Z,160
2017-09-01T18:19:55.553Z,140
2017-09-01T18:21:18.425Z,120
2017-09-01T18:22:40.633Z,100
2017-09-01T18:24:02.823Z,88
2017-09-01T18:25:25.364Z,72
2017-09-01T18:26:47.702Z,56
2017-09-01T18:28:09.933Z,44